sensor_id;sensor_type;location;lat;lon;timestamp;P1;durP1;ratioP1;P2;durP2;ratioP2
43803;SDS011;29430;52.924;-2.388;2022-07-21T00:03:14;7.20;;;0.60;;
43803;SDS011;29430;52.924;-2.388;2022-07-21T00:08:05;8.80;;;0.68;;
43803;SDS011;29430;52.924;-2.388;2022-07-21T00:12:57;6.60;;;0.52;;
43803;SDS011;29430;52.924;-2.388;2022-07-21T00:17:49;5.35;;;0.50;;
43803;SDS011;29430;52.924;-2.388;2022-07-21T00:22:41;4.55;;;0.50;;
43803;SDS011;29430;52.924;-2.388;2022-07-21T00:27:33;6.35;;;0.57;;
43803;SDS011;29430;52.924;-2.388;2022-07-21T00:32:25;7.22;;;0.70;;
43803;SDS011;29430;52.924;-2.388;2022-07-21T00:37:23;6.35;;;0.85;;
43803;SDS011;29430;52.924;-2.388;2022-07-21T00:42:22;5.88;;;0.50;;
43803;SDS011;29430;52.924;-2.388;2022-07-21T00:47:20;5.13;;;0.60;;
43803;SDS011;29430;52.924;-2.388;2022-07-21T00:52:13;4.85;;;0.40;;
43803;SDS011;29430;52.924;-2.388;2022-07-21T00:57:05;5.30;;;0.88;;
43803;SDS011;29430;52.924;-2.388;2022-07-21T01:01:57;6.07;;;0.65;;
43803;SDS011;29430;52.924;-2.388;2022-07-21T01:06:49;6.95;;;0.70;;
43803;SDS011;29430;52.924;-2.388;2022-07-21T01:11:41;6.57;;;0.80;;
43803;SDS011;29430;52.924;-2.388;2022-07-21T01:16:35;6.55;;;0.68;;
43803;SDS011;29430;52.924;-2.388;2022-07-21T01:21:31;8.68;;;0.50;;
43803;SDS011;29430;52.924;-2.388;2022-07-21T01:26:25;4.80;;;0.50;;
43803;SDS011;29430;52.924;-2.388;2022-07-21T01:31:17;3.88;;;0.30;;
43803;SDS011;29430;52.924;-2.388;2022-07-21T01:36:09;5.38;;;0.38;;
43803;SDS011;29430;52.924;-2.388;2022-07-21T01:41:01;5.65;;;0.30;;
43803;SDS011;29430;52.924;-2.388;2022-07-21T01:46:12;6.80;;;0.40;;
43803;SDS011;29430;52.924;-2.388;2022-07-21T01:51:04;5.03;;;0.38;;
43803;SDS011;29430;52.924;-2.388;2022-07-21T01:55:56;9.10;;;0.50;;
43803;SDS011;29430;52.924;-2.388;2022-07-21T02:00:47;4.75;;;0.40;;
43803;SDS011;29430;52.924;-2.388;2022-07-21T02:05:39;3.65;;;0.25;;
43803;SDS011;29430;52.924;-2.388;2022-07-21T02:10:31;6.20;;;0.47;;
43803;SDS011;29430;52.924;-2.388;2022-07-21T02:15:23;5.57;;;0.30;;
43803;SDS011;29430;52.924;-2.388;2022-07-21T02:20:14;7.50;;;0.50;;
43803;SDS011;29430;52.924;-2.388;2022-07-21T02:25:06;5.82;;;0.77;;
43803;SDS011;29430;52.924;-2.388;2022-07-21T02:29:58;4.55;;;0.30;;
43803;SDS011;29430;52.924;-2.388;2022-07-21T02:34:50;2.95;;;0.30;;
43803;SDS011;29430;52.924;-2.388;2022-07-21T02:39:42;4.57;;;0.57;;
43803;SDS011;29430;52.924;-2.388;2022-07-21T02:44:35;7.18;;;0.40;;
43803;SDS011;29430;52.924;-2.388;2022-07-21T02:49:27;4.60;;;0.40;;
43803;SDS011;29430;52.924;-2.388;2022-07-21T02:54:19;2.83;;;0.30;;
43803;SDS011;29430;52.924;-2.388;2022-07-21T02:59:12;5.53;;;0.70;;
43803;SDS011;29430;52.924;-2.388;2022-07-21T03:04:04;4.85;;;0.40;;
43803;SDS011;29430;52.924;-2.388;2022-07-21T03:08:56;2.58;;;0.22;;
43803;SDS011;29430;52.924;-2.388;2022-07-21T03:13:48;3.63;;;0.43;;
43803;SDS011;29430;52.924;-2.388;2022-07-21T03:18:40;5.10;;;0.68;;
43803;SDS011;29430;52.924;-2.388;2022-07-21T03:23:32;4.97;;;0.47;;
43803;SDS011;29430;52.924;-2.388;2022-07-21T03:28:24;5.47;;;0.30;;
43803;SDS011;29430;52.924;-2.388;2022-07-21T03:33:16;3.67;;;0.20;;
43803;SDS011;29430;52.924;-2.388;2022-07-21T03:38:08;5.00;;;0.40;;
43803;SDS011;29430;52.924;-2.388;2022-07-21T03:43:00;3.28;;;0.20;;
43803;SDS011;29430;52.924;-2.388;2022-07-21T03:47:53;2.67;;;0.25;;
43803;SDS011;29430;52.924;-2.388;2022-07-21T03:52:45;6.85;;;0.55;;
43803;SDS011;29430;52.924;-2.388;2022-07-21T03:57:39;2.95;;;0.35;;
43803;SDS011;29430;52.924;-2.388;2022-07-21T04:02:32;2.90;;;0.20;;
43803;SDS011;29430;52.924;-2.388;2022-07-21T04:07:24;3.13;;;0.30;;
43803;SDS011;29430;52.924;-2.388;2022-07-21T04:12:16;3.83;;;0.30;;
43803;SDS011;29430;52.924;-2.388;2022-07-21T04:17:07;3.17;;;0.30;;
43803;SDS011;29430;52.924;-2.388;2022-07-21T04:21:59;5.15;;;0.50;;
43803;SDS011;29430;52.924;-2.388;2022-07-21T04:26:51;3.42;;;0.20;;
43803;SDS011;29430;52.924;-2.388;2022-07-21T04:31:43;2.67;;;0.30;;
43803;SDS011;29430;52.924;-2.388;2022-07-21T04:36:34;3.53;;;0.35;;
43803;SDS011;29430;52.924;-2.388;2022-07-21T04:41:26;4.60;;;0.77;;
43803;SDS011;29430;52.924;-2.388;2022-07-21T04:46:18;4.13;;;0.28;;
43803;SDS011;29430;52.924;-2.388;2022-07-21T04:51:10;3.75;;;0.30;;
43803;SDS011;29430;52.924;-2.388;2022-07-21T04:56:02;4.65;;;0.50;;
43803;SDS011;29430;52.924;-2.388;2022-07-21T05:00:53;7.40;;;0.38;;
43803;SDS011;29430;52.924;-2.388;2022-07-21T05:05:45;4.07;;;0.30;;
43803;SDS011;29430;52.924;-2.388;2022-07-21T05:10:37;4.38;;;0.30;;
43803;SDS011;29430;52.924;-2.388;2022-07-21T05:15:29;6.90;;;0.30;;
43803;SDS011;29430;52.924;-2.388;2022-07-21T05:20:20;2.40;;;0.30;;
43803;SDS011;29430;52.924;-2.388;2022-07-21T05:25:12;4.90;;;0.40;;
43803;SDS011;29430;52.924;-2.388;2022-07-21T05:30:04;4.68;;;0.40;;
43803;SDS011;29430;52.924;-2.388;2022-07-21T05:34:56;6.47;;;0.40;;
43803;SDS011;29430;52.924;-2.388;2022-07-21T05:39:48;4.45;;;0.38;;
43803;SDS011;29430;52.924;-2.388;2022-07-21T05:44:40;4.85;;;0.40;;
43803;SDS011;29430;52.924;-2.388;2022-07-21T05:49:31;3.22;;;0.40;;
43803;SDS011;29430;52.924;-2.388;2022-07-21T05:54:23;4.10;;;0.20;;
43803;SDS011;29430;52.924;-2.388;2022-07-21T05:59:15;5.78;;;0.40;;
43803;SDS011;29430;52.924;-2.388;2022-07-21T06:04:07;3.95;;;0.40;;
43803;SDS011;29430;52.924;-2.388;2022-07-21T06:08:58;2.90;;;0.30;;
43803;SDS011;29430;52.924;-2.388;2022-07-21T06:13:50;2.58;;;0.20;;
43803;SDS011;29430;52.924;-2.388;2022-07-21T06:18:42;4.57;;;0.45;;
43803;SDS011;29430;52.924;-2.388;2022-07-21T06:23:34;5.80;;;0.40;;
43803;SDS011;29430;52.924;-2.388;2022-07-21T06:28:26;5.28;;;0.50;;
43803;SDS011;29430;52.924;-2.388;2022-07-21T06:33:17;3.97;;;0.40;;
43803;SDS011;29430;52.924;-2.388;2022-07-21T06:38:09;2.28;;;0.30;;
43803;SDS011;29430;52.924;-2.388;2022-07-21T06:43:03;3.80;;;0.45;;
43803;SDS011;29430;52.924;-2.388;2022-07-21T06:48:15;2.28;;;0.30;;
43803;SDS011;29430;52.924;-2.388;2022-07-21T06:53:07;4.25;;;0.40;;
43803;SDS011;29430;52.924;-2.388;2022-07-21T06:58:07;3.17;;;0.40;;
43803;SDS011;29430;52.924;-2.388;2022-07-21T07:03:00;4.15;;;0.70;;
43803;SDS011;29430;52.924;-2.388;2022-07-21T07:07:52;4.18;;;0.52;;
43803;SDS011;29430;52.924;-2.388;2022-07-21T07:12:43;5.07;;;0.38;;
43803;SDS011;29430;52.924;-2.388;2022-07-21T07:17:55;3.95;;;0.50;;
43803;SDS011;29430;52.924;-2.388;2022-07-21T07:22:47;7.80;;;0.80;;
43803;SDS011;29430;52.924;-2.388;2022-07-21T07:27:39;5.75;;;0.50;;
43803;SDS011;29430;52.924;-2.388;2022-07-21T07:32:31;4.88;;;0.50;;
43803;SDS011;29430;52.924;-2.388;2022-07-21T07:37:22;7.40;;;0.88;;
43803;SDS011;29430;52.924;-2.388;2022-07-21T07:42:14;4.85;;;0.50;;
43803;SDS011;29430;52.924;-2.388;2022-07-21T07:47:06;4.18;;;0.60;;
43803;SDS011;29430;52.924;-2.388;2022-07-21T07:51:58;3.10;;;0.43;;
43803;SDS011;29430;52.924;-2.388;2022-07-21T07:56:50;4.93;;;0.40;;
43803;SDS011;29430;52.924;-2.388;2022-07-21T08:01:42;8.25;;;0.68;;
43803;SDS011;29430;52.924;-2.388;2022-07-21T08:06:34;4.45;;;0.60;;
43803;SDS011;29430;52.924;-2.388;2022-07-21T08:11:25;5.22;;;0.68;;
43803;SDS011;29430;52.924;-2.388;2022-07-21T08:16:17;5.32;;;0.85;;
43803;SDS011;29430;52.924;-2.388;2022-07-21T08:21:09;6.18;;;0.90;;
43803;SDS011;29430;52.924;-2.388;2022-07-21T08:26:02;4.57;;;0.90;;
43803;SDS011;29430;52.924;-2.388;2022-07-21T08:30:54;5.70;;;0.80;;
43803;SDS011;29430;52.924;-2.388;2022-07-21T08:35:46;8.48;;;0.80;;
43803;SDS011;29430;52.924;-2.388;2022-07-21T08:40:39;4.65;;;0.73;;
43803;SDS011;29430;52.924;-2.388;2022-07-21T08:45:32;9.18;;;0.88;;
43803;SDS011;29430;52.924;-2.388;2022-07-21T08:50:25;4.28;;;0.65;;
43803;SDS011;29430;52.924;-2.388;2022-07-21T08:55:19;4.40;;;0.50;;
43803;SDS011;29430;52.924;-2.388;2022-07-21T09:00:11;5.10;;;0.90;;
43803;SDS011;29430;52.924;-2.388;2022-07-21T09:05:03;3.90;;;0.50;;
43803;SDS011;29430;52.924;-2.388;2022-07-21T09:10:01;4.75;;;0.50;;
43803;SDS011;29430;52.924;-2.388;2022-07-21T09:20:20;3.78;;;0.45;;
43803;SDS011;29430;52.924;-2.388;2022-07-21T09:25:16;5.05;;;0.90;;
43803;SDS011;29430;52.924;-2.388;2022-07-21T09:30:24;2.45;;;0.45;;
43803;SDS011;29430;52.924;-2.388;2022-07-21T09:35:16;6.22;;;0.60;;
43803;SDS011;29430;52.924;-2.388;2022-07-21T09:40:09;4.30;;;0.50;;
43803;SDS011;29430;52.924;-2.388;2022-07-21T09:45:04;3.90;;;0.40;;
43803;SDS011;29430;52.924;-2.388;2022-07-21T09:50:00;4.15;;;0.60;;
43803;SDS011;29430;52.924;-2.388;2022-07-21T09:55:15;4.70;;;0.70;;
43803;SDS011;29430;52.924;-2.388;2022-07-21T10:00:09;3.80;;;0.47;;
43803;SDS011;29430;52.924;-2.388;2022-07-21T10:05:11;6.60;;;0.60;;
43803;SDS011;29430;52.924;-2.388;2022-07-21T10:10:06;4.72;;;0.50;;
43803;SDS011;29430;52.924;-2.388;2022-07-21T10:14:59;2.35;;;0.50;;
43803;SDS011;29430;52.924;-2.388;2022-07-21T10:20:00;2.53;;;0.40;;
43803;SDS011;29430;52.924;-2.388;2022-07-21T10:25:07;3.30;;;0.40;;
43803;SDS011;29430;52.924;-2.388;2022-07-21T10:30:00;5.13;;;0.65;;
43803;SDS011;29430;52.924;-2.388;2022-07-21T10:34:54;3.10;;;0.50;;
43803;SDS011;29430;52.924;-2.388;2022-07-21T10:39:47;4.00;;;0.50;;
43803;SDS011;29430;52.924;-2.388;2022-07-21T10:44:39;6.07;;;0.60;;
43803;SDS011;29430;52.924;-2.388;2022-07-21T10:49:42;5.25;;;0.40;;
43803;SDS011;29430;52.924;-2.388;2022-07-21T10:54:36;3.25;;;0.40;;
43803;SDS011;29430;52.924;-2.388;2022-07-21T10:59:37;3.63;;;0.40;;
43803;SDS011;29430;52.924;-2.388;2022-07-21T11:05:05;2.78;;;0.30;;
43803;SDS011;29430;52.924;-2.388;2022-07-21T11:10:13;2.30;;;0.40;;
43803;SDS011;29430;52.924;-2.388;2022-07-21T11:15:07;4.72;;;0.55;;
43803;SDS011;29430;52.924;-2.388;2022-07-21T11:20:34;1.88;;;0.30;;
43803;SDS011;29430;52.924;-2.388;2022-07-21T11:25:26;1.95;;;0.30;;
43803;SDS011;29430;52.924;-2.388;2022-07-21T11:30:19;4.05;;;0.35;;
43803;SDS011;29430;52.924;-2.388;2022-07-21T11:35:11;3.30;;;0.30;;
43803;SDS011;29430;52.924;-2.388;2022-07-21T11:40:05;4.00;;;0.55;;
43803;SDS011;29430;52.924;-2.388;2022-07-21T11:44:59;2.80;;;0.22;;
43803;SDS011;29430;52.924;-2.388;2022-07-21T11:49:52;3.45;;;0.40;;
43803;SDS011;29430;52.924;-2.388;2022-07-21T11:54:48;3.00;;;0.40;;
43803;SDS011;29430;52.924;-2.388;2022-07-21T12:09:30;3.83;;;0.70;;
43803;SDS011;29430;52.924;-2.388;2022-07-21T12:14:42;2.15;;;0.68;;
43803;SDS011;29430;52.924;-2.388;2022-07-21T12:19:56;6.72;;;0.85;;
43803;SDS011;29430;52.924;-2.388;2022-07-21T12:24:55;9.25;;;0.70;;
43803;SDS011;29430;52.924;-2.388;2022-07-21T12:29:49;3.13;;;0.60;;
43803;SDS011;29430;52.924;-2.388;2022-07-21T12:34:49;3.28;;;0.57;;
43803;SDS011;29430;52.924;-2.388;2022-07-21T12:39:42;3.47;;;0.68;;
43803;SDS011;29430;52.924;-2.388;2022-07-21T12:44:50;2.50;;;0.63;;
43803;SDS011;29430;52.924;-2.388;2022-07-21T12:55:04;3.08;;;0.50;;
43803;SDS011;29430;52.924;-2.388;2022-07-21T12:59:56;6.68;;;0.63;;
43803;SDS011;29430;52.924;-2.388;2022-07-21T13:04:48;3.65;;;0.60;;
43803;SDS011;29430;52.924;-2.388;2022-07-21T13:09:40;2.75;;;0.60;;
43803;SDS011;29430;52.924;-2.388;2022-07-21T13:14:32;2.95;;;0.50;;
43803;SDS011;29430;52.924;-2.388;2022-07-21T13:19:27;4.65;;;0.60;;
43803;SDS011;29430;52.924;-2.388;2022-07-21T13:24:19;3.55;;;0.70;;
43803;SDS011;29430;52.924;-2.388;2022-07-21T13:29:11;5.78;;;0.80;;
43803;SDS011;29430;52.924;-2.388;2022-07-21T13:34:03;4.22;;;0.63;;
43803;SDS011;29430;52.924;-2.388;2022-07-21T13:38:57;4.38;;;0.65;;
43803;SDS011;29430;52.924;-2.388;2022-07-21T13:44:10;3.88;;;0.77;;
43803;SDS011;29430;52.924;-2.388;2022-07-21T13:49:02;3.88;;;0.55;;
43803;SDS011;29430;52.924;-2.388;2022-07-21T13:53:53;3.47;;;0.60;;
43803;SDS011;29430;52.924;-2.388;2022-07-21T13:58:46;4.43;;;1.00;;
43803;SDS011;29430;52.924;-2.388;2022-07-21T14:03:38;3.72;;;1.00;;
43803;SDS011;29430;52.924;-2.388;2022-07-21T14:08:30;5.65;;;0.90;;
43803;SDS011;29430;52.924;-2.388;2022-07-21T14:13:22;5.07;;;0.85;;
43803;SDS011;29430;52.924;-2.388;2022-07-21T14:18:13;7.60;;;0.90;;
43803;SDS011;29430;52.924;-2.388;2022-07-21T14:23:05;5.85;;;1.25;;
43803;SDS011;29430;52.924;-2.388;2022-07-21T14:27:57;5.50;;;1.20;;
43803;SDS011;29430;52.924;-2.388;2022-07-21T14:32:49;6.97;;;1.30;;
43803;SDS011;29430;52.924;-2.388;2022-07-21T14:37:41;5.28;;;1.35;;
43803;SDS011;29430;52.924;-2.388;2022-07-21T14:42:33;2.97;;;0.85;;
43803;SDS011;29430;52.924;-2.388;2022-07-21T14:47:25;3.33;;;0.85;;
43803;SDS011;29430;52.924;-2.388;2022-07-21T14:52:17;3.80;;;1.42;;
43803;SDS011;29430;52.924;-2.388;2022-07-21T14:57:09;4.13;;;1.25;;
43803;SDS011;29430;52.924;-2.388;2022-07-21T15:02:01;4.43;;;2.20;;
43803;SDS011;29430;52.924;-2.388;2022-07-21T15:07:01;5.38;;;2.35;;
43803;SDS011;29430;52.924;-2.388;2022-07-21T15:11:52;4.50;;;1.90;;
43803;SDS011;29430;52.924;-2.388;2022-07-21T15:16:44;7.35;;;2.97;;
43803;SDS011;29430;52.924;-2.388;2022-07-21T15:21:36;4.85;;;2.60;;
43803;SDS011;29430;52.924;-2.388;2022-07-21T15:26:28;6.72;;;3.72;;
43803;SDS011;29430;52.924;-2.388;2022-07-21T15:31:20;5.80;;;4.45;;
43803;SDS011;29430;52.924;-2.388;2022-07-21T15:36:12;8.23;;;4.53;;
43803;SDS011;29430;52.924;-2.388;2022-07-21T15:41:04;7.63;;;4.05;;
43803;SDS011;29430;52.924;-2.388;2022-07-21T15:45:57;6.60;;;3.60;;
43803;SDS011;29430;52.924;-2.388;2022-07-21T15:50:49;3.88;;;2.72;;
43803;SDS011;29430;52.924;-2.388;2022-07-21T15:55:41;6.93;;;3.95;;
43803;SDS011;29430;52.924;-2.388;2022-07-21T16:00:39;5.80;;;3.85;;
43803;SDS011;29430;52.924;-2.388;2022-07-21T16:05:31;7.57;;;3.60;;
43803;SDS011;29430;52.924;-2.388;2022-07-21T16:10:25;4.82;;;3.22;;
43803;SDS011;29430;52.924;-2.388;2022-07-21T16:15:17;6.80;;;4.38;;
43803;SDS011;29430;52.924;-2.388;2022-07-21T16:20:10;10.82;;;4.20;;
43803;SDS011;29430;52.924;-2.388;2022-07-21T16:25:04;5.93;;;3.80;;
43803;SDS011;29430;52.924;-2.388;2022-07-21T16:29:56;6.45;;;3.30;;
43803;SDS011;29430;52.924;-2.388;2022-07-21T16:34:48;4.32;;;3.15;;
43803;SDS011;29430;52.924;-2.388;2022-07-21T16:39:40;5.50;;;3.20;;
43803;SDS011;29430;52.924;-2.388;2022-07-21T16:44:32;3.85;;;3.08;;
43803;SDS011;29430;52.924;-2.388;2022-07-21T16:49:24;7.75;;;3.28;;
43803;SDS011;29430;52.924;-2.388;2022-07-21T16:54:16;5.57;;;3.05;;
43803;SDS011;29430;52.924;-2.388;2022-07-21T16:59:08;4.35;;;2.90;;
43803;SDS011;29430;52.924;-2.388;2022-07-21T17:04:00;6.43;;;3.55;;
43803;SDS011;29430;52.924;-2.388;2022-07-21T17:08:51;6.22;;;3.20;;
43803;SDS011;29430;52.924;-2.388;2022-07-21T17:13:44;3.45;;;2.58;;
43803;SDS011;29430;52.924;-2.388;2022-07-21T17:18:36;4.03;;;2.33;;
43803;SDS011;29430;52.924;-2.388;2022-07-21T17:23:28;5.50;;;2.95;;
43803;SDS011;29430;52.924;-2.388;2022-07-21T17:28:20;4.80;;;3.10;;
43803;SDS011;29430;52.924;-2.388;2022-07-21T17:33:12;4.13;;;2.25;;
43803;SDS011;29430;52.924;-2.388;2022-07-21T17:38:03;3.13;;;1.90;;
43803;SDS011;29430;52.924;-2.388;2022-07-21T17:42:57;7.18;;;2.70;;
43803;SDS011;29430;52.924;-2.388;2022-07-21T17:47:48;6.53;;;3.75;;
43803;SDS011;29430;52.924;-2.388;2022-07-21T17:52:42;5.47;;;3.55;;
43803;SDS011;29430;52.924;-2.388;2022-07-21T17:57:34;6.13;;;3.20;;
43803;SDS011;29430;52.924;-2.388;2022-07-21T18:02:45;7.05;;;4.05;;
43803;SDS011;29430;52.924;-2.388;2022-07-21T18:07:37;4.60;;;2.92;;
43803;SDS011;29430;52.924;-2.388;2022-07-21T18:12:29;5.93;;;2.75;;
43803;SDS011;29430;52.924;-2.388;2022-07-21T18:17:21;4.43;;;2.33;;
43803;SDS011;29430;52.924;-2.388;2022-07-21T18:22:13;6.93;;;3.00;;
43803;SDS011;29430;52.924;-2.388;2022-07-21T18:27:04;6.25;;;2.33;;
43803;SDS011;29430;52.924;-2.388;2022-07-21T18:31:56;6.82;;;2.83;;
43803;SDS011;29430;52.924;-2.388;2022-07-21T18:36:50;4.65;;;2.42;;
43803;SDS011;29430;52.924;-2.388;2022-07-21T18:41:42;7.60;;;2.80;;
43803;SDS011;29430;52.924;-2.388;2022-07-21T18:46:34;4.60;;;1.98;;
43803;SDS011;29430;52.924;-2.388;2022-07-21T18:51:25;5.18;;;2.10;;
43803;SDS011;29430;52.924;-2.388;2022-07-21T18:56:17;6.35;;;1.90;;
43803;SDS011;29430;52.924;-2.388;2022-07-21T19:01:09;6.15;;;1.52;;
43803;SDS011;29430;52.924;-2.388;2022-07-21T19:06:03;3.72;;;1.70;;
43803;SDS011;29430;52.924;-2.388;2022-07-21T19:10:55;3.78;;;1.45;;
43803;SDS011;29430;52.924;-2.388;2022-07-21T19:15:47;6.43;;;1.77;;
43803;SDS011;29430;52.924;-2.388;2022-07-21T19:20:38;5.07;;;1.20;;
43803;SDS011;29430;52.924;-2.388;2022-07-21T19:25:31;3.30;;;1.27;;
43803;SDS011;29430;52.924;-2.388;2022-07-21T19:30:23;5.15;;;1.10;;
43803;SDS011;29430;52.924;-2.388;2022-07-21T19:35:15;3.80;;;1.23;;
43803;SDS011;29430;52.924;-2.388;2022-07-21T19:40:07;3.75;;;0.82;;
43803;SDS011;29430;52.924;-2.388;2022-07-21T19:45:00;2.95;;;0.80;;
43803;SDS011;29430;52.924;-2.388;2022-07-21T19:49:52;3.70;;;1.05;;
43803;SDS011;29430;52.924;-2.388;2022-07-21T19:54:44;4.30;;;1.30;;
43803;SDS011;29430;52.924;-2.388;2022-07-21T19:59:36;5.20;;;1.27;;
43803;SDS011;29430;52.924;-2.388;2022-07-21T20:04:27;5.43;;;1.60;;
43803;SDS011;29430;52.924;-2.388;2022-07-21T20:09:19;4.07;;;1.20;;
43803;SDS011;29430;52.924;-2.388;2022-07-21T20:14:11;3.55;;;1.13;;
43803;SDS011;29430;52.924;-2.388;2022-07-21T20:19:06;5.45;;;1.75;;
43803;SDS011;29430;52.924;-2.388;2022-07-21T20:23:58;6.18;;;1.20;;
43803;SDS011;29430;52.924;-2.388;2022-07-21T20:28:50;3.17;;;1.00;;
43803;SDS011;29430;52.924;-2.388;2022-07-21T20:33:42;4.00;;;1.60;;
43803;SDS011;29430;52.924;-2.388;2022-07-21T20:38:34;3.42;;;1.33;;
43803;SDS011;29430;52.924;-2.388;2022-07-21T20:43:26;5.60;;;1.50;;
43803;SDS011;29430;52.924;-2.388;2022-07-21T20:48:17;6.65;;;1.00;;
43803;SDS011;29430;52.924;-2.388;2022-07-21T20:53:09;10.38;;;1.50;;
43803;SDS011;29430;52.924;-2.388;2022-07-21T20:58:22;3.60;;;1.02;;
43803;SDS011;29430;52.924;-2.388;2022-07-21T21:03:14;8.02;;;1.92;;
43803;SDS011;29430;52.924;-2.388;2022-07-21T21:08:06;4.70;;;1.80;;
43803;SDS011;29430;52.924;-2.388;2022-07-21T21:12:57;6.45;;;2.17;;
43803;SDS011;29430;52.924;-2.388;2022-07-21T21:17:49;3.88;;;1.90;;
43803;SDS011;29430;52.924;-2.388;2022-07-21T21:22:41;4.03;;;1.85;;
43803;SDS011;29430;52.924;-2.388;2022-07-21T21:27:33;3.97;;;1.73;;
43803;SDS011;29430;52.924;-2.388;2022-07-21T21:32:24;3.00;;;1.75;;
43803;SDS011;29430;52.924;-2.388;2022-07-21T21:37:16;3.40;;;1.98;;
43803;SDS011;29430;52.924;-2.388;2022-07-21T21:42:08;4.40;;;1.50;;
43803;SDS011;29430;52.924;-2.388;2022-07-21T21:47:00;4.18;;;1.70;;
43803;SDS011;29430;52.924;-2.388;2022-07-21T21:51:52;4.20;;;1.45;;
43803;SDS011;29430;52.924;-2.388;2022-07-21T21:56:44;4.47;;;1.83;;
43803;SDS011;29430;52.924;-2.388;2022-07-21T22:01:35;3.47;;;1.40;;
43803;SDS011;29430;52.924;-2.388;2022-07-21T22:06:27;2.78;;;1.38;;
43803;SDS011;29430;52.924;-2.388;2022-07-21T22:11:19;5.95;;;2.17;;
43803;SDS011;29430;52.924;-2.388;2022-07-21T22:16:11;4.85;;;2.08;;
43803;SDS011;29430;52.924;-2.388;2022-07-21T22:21:02;5.30;;;2.28;;
43803;SDS011;29430;52.924;-2.388;2022-07-21T22:25:54;6.97;;;2.92;;
43803;SDS011;29430;52.924;-2.388;2022-07-21T22:30:46;3.78;;;2.55;;
43803;SDS011;29430;52.924;-2.388;2022-07-21T22:35:38;5.70;;;3.47;;
43803;SDS011;29430;52.924;-2.388;2022-07-21T22:40:29;7.65;;;2.92;;
43803;SDS011;29430;52.924;-2.388;2022-07-21T22:45:21;4.82;;;2.78;;
43803;SDS011;29430;52.924;-2.388;2022-07-21T22:50:25;5.50;;;2.35;;
43803;SDS011;29430;52.924;-2.388;2022-07-21T22:55:16;5.55;;;1.63;;
43803;SDS011;29430;52.924;-2.388;2022-07-21T23:00:08;3.42;;;1.58;;
43803;SDS011;29430;52.924;-2.388;2022-07-21T23:05:03;5.00;;;0.90;;
43803;SDS011;29430;52.924;-2.388;2022-07-21T23:09:55;4.57;;;0.90;;
43803;SDS011;29430;52.924;-2.388;2022-07-21T23:14:46;2.97;;;0.60;;
43803;SDS011;29430;52.924;-2.388;2022-07-21T23:19:38;2.03;;;0.50;;
43803;SDS011;29430;52.924;-2.388;2022-07-21T23:24:30;3.25;;;0.40;;
43803;SDS011;29430;52.924;-2.388;2022-07-21T23:29:21;2.47;;;0.40;;
43803;SDS011;29430;52.924;-2.388;2022-07-21T23:34:13;2.35;;;0.40;;
43803;SDS011;29430;52.924;-2.388;2022-07-21T23:39:05;1.98;;;0.40;;
43803;SDS011;29430;52.924;-2.388;2022-07-21T23:43:57;2.85;;;0.40;;
43803;SDS011;29430;52.924;-2.388;2022-07-21T23:48:48;1.30;;;0.40;;
43803;SDS011;29430;52.924;-2.388;2022-07-21T23:53:40;2.88;;;0.40;;
43803;SDS011;29430;52.924;-2.388;2022-07-21T23:58:32;4.07;;;0.30;;
